2022/05/19 05:30 YSSY 190530Z 18009KT 9999 FEW040 BKN300 17/04 Q1025
2022/05/19 05:30 YMML 190530Z 20008KT 9999 SCT032 BKN039 13/07 Q1030
2022/05/19 05:30 YSCB 190530Z AUTO 17005KT 130V210 9999 // NCD 14/01 Q1025
2022/05/19 05:30 YPAD 190530Z 23006KT CAVOK 16/08 Q1029
2022/05/19 05:30 YPPH 190530Z 03005KT 9999 FEW026 21/14 Q1016
2022/05/19 05:30 YBBN 190530Z 14008KT 9999 SCT029 BKN066 22/16 Q1021
2022/05/19 05:30 YMHB 190530Z 21006KT 9999 FEW046 13/02 Q1024
2022/05/19 05:30 NZAA 190530Z AUTO 29007KT 9999 NCD 17/15 Q1011 NOSIG
2022/05/19 05:30 NZCH 190530Z AUTO 31004KT 260V340 9999 NCD 13/05 Q0995 TEMPO 30015G25KT

Powered by MinhViet JSC.